sensor_id;sensor_type;location;lat;lon;timestamp;P1;durP1;ratioP1;P2;durP2;ratioP2
43008;SDS011;28634;45.454;11.106;2022-10-16T00:00:57;62.78;;;46.33;;
43008;SDS011;28634;45.454;11.106;2022-10-16T00:03:24;63.67;;;48.00;;
43008;SDS011;28634;45.454;11.106;2022-10-16T00:05:58;57.97;;;45.60;;
43008;SDS011;28634;45.454;11.106;2022-10-16T00:08:26;58.25;;;44.63;;
43008;SDS011;28634;45.454;11.106;2022-10-16T00:10:58;58.72;;;44.22;;
43008;SDS011;28634;45.454;11.106;2022-10-16T00:13:34;64.40;;;46.30;;
43008;SDS011;28634;45.454;11.106;2022-10-16T00:16:02;62.33;;;45.78;;
43008;SDS011;28634;45.454;11.106;2022-10-16T00:18:29;63.75;;;46.50;;
43008;SDS011;28634;45.454;11.106;2022-10-16T00:21:07;66.07;;;47.45;;
43008;SDS011;28634;45.454;11.106;2022-10-16T00:23:36;65.93;;;47.53;;
43008;SDS011;28634;45.454;11.106;2022-10-16T00:26:04;66.05;;;48.08;;
43008;SDS011;28634;45.454;11.106;2022-10-16T00:28:34;64.30;;;48.03;;
43008;SDS011;28634;45.454;11.106;2022-10-16T00:31:05;62.45;;;47.60;;
43008;SDS011;28634;45.454;11.106;2022-10-16T00:33:34;68.78;;;49.70;;
43008;SDS011;28634;45.454;11.106;2022-10-16T00:36:03;65.00;;;49.58;;
43008;SDS011;28634;45.454;11.106;2022-10-16T00:38:30;70.82;;;52.35;;
43008;SDS011;28634;45.454;11.106;2022-10-16T00:40:58;70.18;;;51.03;;
43008;SDS011;28634;45.454;11.106;2022-10-16T00:46:07;74.70;;;52.25;;
43008;SDS011;28634;45.454;11.106;2022-10-16T00:51:50;70.05;;;51.90;;
43008;SDS011;28634;45.454;11.106;2022-10-16T00:54:21;67.80;;;48.40;;
43008;SDS011;28634;45.454;11.106;2022-10-16T00:56:52;67.65;;;50.22;;
43008;SDS011;28634;45.454;11.106;2022-10-16T00:59:31;71.38;;;51.53;;
43008;SDS011;28634;45.454;11.106;2022-10-16T01:02:02;69.70;;;50.22;;
43008;SDS011;28634;45.454;11.106;2022-10-16T01:04:31;67.75;;;50.22;;
43008;SDS011;28634;45.454;11.106;2022-10-16T01:09:53;76.22;;;51.95;;
43008;SDS011;28634;45.454;11.106;2022-10-16T01:20:54;70.72;;;52.00;;
43008;SDS011;28634;45.454;11.106;2022-10-16T01:29:24;75.50;;;52.40;;
43008;SDS011;28634;45.454;11.106;2022-10-16T01:32:28;73.63;;;53.88;;
43008;SDS011;28634;45.454;11.106;2022-10-16T01:37:39;72.47;;;53.22;;
43008;SDS011;28634;45.454;11.106;2022-10-16T01:40:19;74.10;;;53.05;;
43008;SDS011;28634;45.454;11.106;2022-10-16T01:42:50;70.72;;;52.70;;
43008;SDS011;28634;45.454;11.106;2022-10-16T01:45:21;75.78;;;54.15;;
43008;SDS011;28634;45.454;11.106;2022-10-16T01:47:49;75.55;;;53.60;;
43008;SDS011;28634;45.454;11.106;2022-10-16T01:50:18;73.18;;;52.83;;
43008;SDS011;28634;45.454;11.106;2022-10-16T01:52:48;72.25;;;53.00;;
43008;SDS011;28634;45.454;11.106;2022-10-16T01:55:21;72.90;;;52.28;;
43008;SDS011;28634;45.454;11.106;2022-10-16T01:57:53;72.80;;;52.67;;
43008;SDS011;28634;45.454;11.106;2022-10-16T02:00:21;74.00;;;52.55;;
43008;SDS011;28634;45.454;11.106;2022-10-16T02:02:50;74.45;;;53.92;;
43008;SDS011;28634;45.454;11.106;2022-10-16T02:07:52;71.90;;;53.97;;
43008;SDS011;28634;45.454;11.106;2022-10-16T02:10:19;71.00;;;52.60;;
43008;SDS011;28634;45.454;11.106;2022-10-16T02:12:53;77.60;;;53.50;;
43008;SDS011;28634;45.454;11.106;2022-10-16T02:15:25;73.60;;;53.83;;
43008;SDS011;28634;45.454;11.106;2022-10-16T02:17:52;73.15;;;51.92;;
43008;SDS011;28634;45.454;11.106;2022-10-16T02:20:20;75.57;;;54.20;;
43008;SDS011;28634;45.454;11.106;2022-10-16T02:22:53;78.28;;;53.35;;
43008;SDS011;28634;45.454;11.106;2022-10-16T02:25:24;71.03;;;52.15;;
43008;SDS011;28634;45.454;11.106;2022-10-16T02:28:10;73.00;;;52.05;;
43008;SDS011;28634;45.454;11.106;2022-10-16T02:30:56;70.57;;;52.25;;
43008;SDS011;28634;45.454;11.106;2022-10-16T02:33:27;72.47;;;51.80;;
43008;SDS011;28634;45.454;11.106;2022-10-16T02:35:56;71.75;;;51.63;;
43008;SDS011;28634;45.454;11.106;2022-10-16T02:38:24;69.30;;;52.15;;
43008;SDS011;28634;45.454;11.106;2022-10-16T02:40:52;74.15;;;53.00;;
43008;SDS011;28634;45.454;11.106;2022-10-16T02:43:20;71.20;;;52.20;;
43008;SDS011;28634;45.454;11.106;2022-10-16T02:45:47;74.32;;;53.67;;
43008;SDS011;28634;45.454;11.106;2022-10-16T02:48:14;76.00;;;53.38;;
43008;SDS011;28634;45.454;11.106;2022-10-16T02:50:41;77.43;;;52.58;;
43008;SDS011;28634;45.454;11.106;2022-10-16T02:53:08;75.50;;;53.20;;
43008;SDS011;28634;45.454;11.106;2022-10-16T02:55:35;78.55;;;55.35;;
43008;SDS011;28634;45.454;11.106;2022-10-16T02:58:02;71.95;;;51.75;;
43008;SDS011;28634;45.454;11.106;2022-10-16T03:00:29;71.85;;;53.20;;
43008;SDS011;28634;45.454;11.106;2022-10-16T03:02:56;76.13;;;53.78;;
43008;SDS011;28634;45.454;11.106;2022-10-16T03:05:23;74.32;;;53.35;;
43008;SDS011;28634;45.454;11.106;2022-10-16T03:07:50;72.28;;;52.72;;
43008;SDS011;28634;45.454;11.106;2022-10-16T03:10:18;74.78;;;53.53;;
43008;SDS011;28634;45.454;11.106;2022-10-16T03:12:45;76.13;;;52.10;;
43008;SDS011;28634;45.454;11.106;2022-10-16T03:15:12;72.55;;;53.25;;
43008;SDS011;28634;45.454;11.106;2022-10-16T03:17:39;75.20;;;52.55;;
43008;SDS011;28634;45.454;11.106;2022-10-16T03:20:06;71.55;;;51.72;;
43008;SDS011;28634;45.454;11.106;2022-10-16T03:22:34;72.35;;;51.45;;
43008;SDS011;28634;45.454;11.106;2022-10-16T03:25:03;72.72;;;51.85;;
43008;SDS011;28634;45.454;11.106;2022-10-16T03:27:30;69.07;;;50.90;;
43008;SDS011;28634;45.454;11.106;2022-10-16T03:29:57;69.00;;;48.55;;
43008;SDS011;28634;45.454;11.106;2022-10-16T03:32:24;69.78;;;51.00;;
43008;SDS011;28634;45.454;11.106;2022-10-16T03:34:51;72.53;;;50.28;;
43008;SDS011;28634;45.454;11.106;2022-10-16T03:37:20;67.22;;;50.25;;
43008;SDS011;28634;45.454;11.106;2022-10-16T03:39:47;75.95;;;50.90;;
43008;SDS011;28634;45.454;11.106;2022-10-16T03:42:14;67.55;;;51.05;;
43008;SDS011;28634;45.454;11.106;2022-10-16T03:44:41;71.40;;;51.35;;
43008;SDS011;28634;45.454;11.106;2022-10-16T03:47:08;66.10;;;49.58;;
43008;SDS011;28634;45.454;11.106;2022-10-16T03:49:35;70.82;;;51.42;;
43008;SDS011;28634;45.454;11.106;2022-10-16T03:52:02;69.50;;;51.25;;
43008;SDS011;28634;45.454;11.106;2022-10-16T03:54:29;69.47;;;49.75;;
43008;SDS011;28634;45.454;11.106;2022-10-16T03:56:56;71.88;;;52.45;;
43008;SDS011;28634;45.454;11.106;2022-10-16T03:59:23;75.35;;;53.03;;
43008;SDS011;28634;45.454;11.106;2022-10-16T04:01:50;76.60;;;54.00;;
43008;SDS011;28634;45.454;11.106;2022-10-16T04:04:17;72.28;;;52.90;;
43008;SDS011;28634;45.454;11.106;2022-10-16T04:06:44;76.00;;;52.65;;
43008;SDS011;28634;45.454;11.106;2022-10-16T04:09:11;76.70;;;53.00;;
43008;SDS011;28634;45.454;11.106;2022-10-16T04:11:38;75.70;;;53.42;;
43008;SDS011;28634;45.454;11.106;2022-10-16T04:14:05;74.03;;;53.78;;
43008;SDS011;28634;45.454;11.106;2022-10-16T04:16:32;71.97;;;52.40;;
43008;SDS011;28634;45.454;11.106;2022-10-16T04:18:59;75.20;;;53.28;;
43008;SDS011;28634;45.454;11.106;2022-10-16T04:21:26;74.20;;;53.38;;
43008;SDS011;28634;45.454;11.106;2022-10-16T04:23:53;75.63;;;52.53;;
43008;SDS011;28634;45.454;11.106;2022-10-16T04:26:20;73.95;;;52.72;;
43008;SDS011;28634;45.454;11.106;2022-10-16T04:28:47;68.80;;;51.10;;
43008;SDS011;28634;45.454;11.106;2022-10-16T04:31:14;75.45;;;49.97;;
43008;SDS011;28634;45.454;11.106;2022-10-16T04:33:44;71.00;;;51.85;;
43008;SDS011;28634;45.454;11.106;2022-10-16T04:36:11;71.32;;;52.67;;
43008;SDS011;28634;45.454;11.106;2022-10-16T04:38:38;75.70;;;51.55;;
43008;SDS011;28634;45.454;11.106;2022-10-16T04:41:06;76.80;;;53.15;;
43008;SDS011;28634;45.454;11.106;2022-10-16T04:43:33;74.45;;;51.60;;
43008;SDS011;28634;45.454;11.106;2022-10-16T04:46:01;68.75;;;50.22;;
43008;SDS011;28634;45.454;11.106;2022-10-16T04:48:28;69.00;;;50.13;;
43008;SDS011;28634;45.454;11.106;2022-10-16T04:50:55;71.95;;;51.42;;
43008;SDS011;28634;45.454;11.106;2022-10-16T04:53:22;64.43;;;48.40;;
43008;SDS011;28634;45.454;11.106;2022-10-16T04:55:49;68.38;;;49.85;;
43008;SDS011;28634;45.454;11.106;2022-10-16T04:58:17;68.85;;;50.55;;
43008;SDS011;28634;45.454;11.106;2022-10-16T05:00:44;68.82;;;51.08;;
43008;SDS011;28634;45.454;11.106;2022-10-16T05:03:13;71.50;;;49.58;;
43008;SDS011;28634;45.454;11.106;2022-10-16T05:05:44;63.90;;;48.58;;
43008;SDS011;28634;45.454;11.106;2022-10-16T05:08:12;70.05;;;51.85;;
43008;SDS011;28634;45.454;11.106;2022-10-16T05:10:41;69.53;;;49.97;;
43008;SDS011;28634;45.454;11.106;2022-10-16T05:13:09;72.50;;;50.88;;
43008;SDS011;28634;45.454;11.106;2022-10-16T05:15:37;71.78;;;52.47;;
43008;SDS011;28634;45.454;11.106;2022-10-16T05:18:04;67.53;;;50.72;;
43008;SDS011;28634;45.454;11.106;2022-10-16T05:20:31;66.38;;;49.78;;
43008;SDS011;28634;45.454;11.106;2022-10-16T05:22:58;66.68;;;49.95;;
43008;SDS011;28634;45.454;11.106;2022-10-16T05:25:25;69.78;;;49.58;;
43008;SDS011;28634;45.454;11.106;2022-10-16T05:27:52;66.18;;;48.88;;
43008;SDS011;28634;45.454;11.106;2022-10-16T05:30:19;70.28;;;50.17;;
43008;SDS011;28634;45.454;11.106;2022-10-16T05:32:47;68.63;;;49.53;;
43008;SDS011;28634;45.454;11.106;2022-10-16T05:35:15;68.63;;;49.25;;
43008;SDS011;28634;45.454;11.106;2022-10-16T05:37:44;69.40;;;49.95;;
43008;SDS011;28634;45.454;11.106;2022-10-16T05:40:11;71.18;;;50.60;;
43008;SDS011;28634;45.454;11.106;2022-10-16T05:42:39;72.65;;;50.70;;
43008;SDS011;28634;45.454;11.106;2022-10-16T05:45:08;67.75;;;51.38;;
43008;SDS011;28634;45.454;11.106;2022-10-16T05:47:37;72.13;;;50.78;;
43008;SDS011;28634;45.454;11.106;2022-10-16T05:50:04;75.65;;;53.33;;
43008;SDS011;28634;45.454;11.106;2022-10-16T05:52:31;71.30;;;52.38;;
43008;SDS011;28634;45.454;11.106;2022-10-16T05:54:58;76.18;;;51.33;;
43008;SDS011;28634;45.454;11.106;2022-10-16T05:57:25;76.50;;;51.65;;
43008;SDS011;28634;45.454;11.106;2022-10-16T05:59:52;75.55;;;52.05;;
43008;SDS011;28634;45.454;11.106;2022-10-16T06:02:19;69.10;;;50.08;;
43008;SDS011;28634;45.454;11.106;2022-10-16T06:04:46;74.95;;;51.47;;
43008;SDS011;28634;45.454;11.106;2022-10-16T06:07:13;73.82;;;50.45;;
43008;SDS011;28634;45.454;11.106;2022-10-16T06:09:40;71.55;;;51.67;;
43008;SDS011;28634;45.454;11.106;2022-10-16T06:12:07;79.90;;;52.00;;
43008;SDS011;28634;45.454;11.106;2022-10-16T06:14:34;70.55;;;50.50;;
43008;SDS011;28634;45.454;11.106;2022-10-16T06:17:01;72.32;;;50.20;;
43008;SDS011;28634;45.454;11.106;2022-10-16T06:19:28;73.90;;;50.50;;
43008;SDS011;28634;45.454;11.106;2022-10-16T06:21:56;70.82;;;51.72;;
43008;SDS011;28634;45.454;11.106;2022-10-16T06:24:24;74.47;;;51.13;;
43008;SDS011;28634;45.454;11.106;2022-10-16T06:26:51;72.60;;;51.63;;
43008;SDS011;28634;45.454;11.106;2022-10-16T06:29:18;71.55;;;51.58;;
43008;SDS011;28634;45.454;11.106;2022-10-16T06:31:46;69.82;;;50.70;;
43008;SDS011;28634;45.454;11.106;2022-10-16T06:34:12;72.65;;;52.83;;
43008;SDS011;28634;45.454;11.106;2022-10-16T06:36:40;70.10;;;49.80;;
43008;SDS011;28634;45.454;11.106;2022-10-16T06:39:07;71.60;;;51.67;;
43008;SDS011;28634;45.454;11.106;2022-10-16T06:41:34;68.55;;;49.40;;
43008;SDS011;28634;45.454;11.106;2022-10-16T06:44:04;67.82;;;51.38;;
43008;SDS011;28634;45.454;11.106;2022-10-16T06:46:32;70.50;;;50.95;;
43008;SDS011;28634;45.454;11.106;2022-10-16T06:49:00;69.20;;;50.00;;
43008;SDS011;28634;45.454;11.106;2022-10-16T06:51:27;70.53;;;50.95;;
43008;SDS011;28634;45.454;11.106;2022-10-16T06:53:55;64.80;;;49.70;;
43008;SDS011;28634;45.454;11.106;2022-10-16T06:56:30;66.50;;;49.97;;
43008;SDS011;28634;45.454;11.106;2022-10-16T06:58:58;70.65;;;50.45;;
43008;SDS011;28634;45.454;11.106;2022-10-16T07:01:26;66.32;;;49.80;;
43008;SDS011;28634;45.454;11.106;2022-10-16T07:03:59;64.60;;;49.17;;
43008;SDS011;28634;45.454;11.106;2022-10-16T07:06:27;70.50;;;47.78;;
43008;SDS011;28634;45.454;11.106;2022-10-16T07:09:00;64.43;;;48.05;;
43008;SDS011;28634;45.454;11.106;2022-10-16T07:11:30;66.10;;;48.63;;
43008;SDS011;28634;45.454;11.106;2022-10-16T07:13:58;63.88;;;47.95;;
43008;SDS011;28634;45.454;11.106;2022-10-16T07:16:26;69.00;;;48.47;;
43008;SDS011;28634;45.454;11.106;2022-10-16T07:18:55;68.32;;;50.67;;
43008;SDS011;28634;45.454;11.106;2022-10-16T07:21:30;70.32;;;51.53;;
43008;SDS011;28634;45.454;11.106;2022-10-16T07:24:09;69.57;;;51.58;;
43008;SDS011;28634;45.454;11.106;2022-10-16T07:26:39;71.05;;;52.17;;
43008;SDS011;28634;45.454;11.106;2022-10-16T07:29:07;74.97;;;53.92;;
43008;SDS011;28634;45.454;11.106;2022-10-16T07:31:40;71.22;;;53.33;;
43008;SDS011;28634;45.454;11.106;2022-10-16T07:34:07;68.43;;;51.30;;
43008;SDS011;28634;45.454;11.106;2022-10-16T07:36:34;66.97;;;49.75;;
43008;SDS011;28634;45.454;11.106;2022-10-16T07:39:01;73.75;;;51.85;;
43008;SDS011;28634;45.454;11.106;2022-10-16T07:41:28;68.75;;;50.85;;
43008;SDS011;28634;45.454;11.106;2022-10-16T07:43:56;68.80;;;51.45;;
43008;SDS011;28634;45.454;11.106;2022-10-16T07:46:26;69.05;;;51.83;;
43008;SDS011;28634;45.454;11.106;2022-10-16T07:48:54;73.22;;;53.65;;
43008;SDS011;28634;45.454;11.106;2022-10-16T07:51:21;71.03;;;52.25;;
43008;SDS011;28634;45.454;11.106;2022-10-16T07:53:50;72.25;;;52.95;;
43008;SDS011;28634;45.454;11.106;2022-10-16T07:56:18;72.18;;;51.70;;
43008;SDS011;28634;45.454;11.106;2022-10-16T07:58:46;68.05;;;51.67;;
43008;SDS011;28634;45.454;11.106;2022-10-16T08:01:14;69.95;;;51.67;;
43008;SDS011;28634;45.454;11.106;2022-10-16T08:03:43;65.22;;;50.08;;
43008;SDS011;28634;45.454;11.106;2022-10-16T08:06:15;74.00;;;52.38;;
43008;SDS011;28634;45.454;11.106;2022-10-16T08:08:43;69.97;;;52.70;;
43008;SDS011;28634;45.454;11.106;2022-10-16T08:11:10;70.35;;;51.10;;
43008;SDS011;28634;45.454;11.106;2022-10-16T08:13:37;70.57;;;50.40;;
43008;SDS011;28634;45.454;11.106;2022-10-16T08:16:04;69.43;;;51.67;;
43008;SDS011;28634;45.454;11.106;2022-10-16T08:18:35;70.38;;;52.20;;
43008;SDS011;28634;45.454;11.106;2022-10-16T08:21:03;70.13;;;52.08;;
43008;SDS011;28634;45.454;11.106;2022-10-16T08:23:31;74.45;;;53.10;;
43008;SDS011;28634;45.454;11.106;2022-10-16T08:26:05;70.18;;;52.97;;
43008;SDS011;28634;45.454;11.106;2022-10-16T08:28:33;69.97;;;53.75;;
43008;SDS011;28634;45.454;11.106;2022-10-16T08:31:05;68.93;;;52.75;;
43008;SDS011;28634;45.454;11.106;2022-10-16T08:33:34;67.57;;;52.92;;
43008;SDS011;28634;45.454;11.106;2022-10-16T08:36:02;69.20;;;51.88;;
43008;SDS011;28634;45.454;11.106;2022-10-16T08:38:30;70.90;;;52.67;;
43008;SDS011;28634;45.454;11.106;2022-10-16T08:41:17;73.45;;;53.88;;
43008;SDS011;28634;45.454;11.106;2022-10-16T08:46:41;66.05;;;50.10;;
43008;SDS011;28634;45.454;11.106;2022-10-16T08:49:20;66.68;;;51.97;;
43008;SDS011;28634;45.454;11.106;2022-10-16T08:51:49;70.18;;;51.55;;
43008;SDS011;28634;45.454;11.106;2022-10-16T08:54:37;65.80;;;49.63;;
43008;SDS011;28634;45.454;11.106;2022-10-16T08:57:11;69.55;;;50.80;;
43008;SDS011;28634;45.454;11.106;2022-10-16T08:59:49;64.38;;;48.30;;
43008;SDS011;28634;45.454;11.106;2022-10-16T09:02:35;63.67;;;49.60;;
43008;SDS011;28634;45.454;11.106;2022-10-16T09:05:16;66.35;;;49.78;;
43008;SDS011;28634;45.454;11.106;2022-10-16T09:10:43;71.07;;;51.45;;
43008;SDS011;28634;45.454;11.106;2022-10-16T09:13:28;68.93;;;50.88;;
43008;SDS011;28634;45.454;11.106;2022-10-16T09:15:58;70.20;;;51.60;;
43008;SDS011;28634;45.454;11.106;2022-10-16T09:18:48;67.88;;;50.95;;
43008;SDS011;28634;45.454;11.106;2022-10-16T09:21:31;70.53;;;52.35;;
43008;SDS011;28634;45.454;11.106;2022-10-16T09:24:12;71.97;;;52.83;;
43008;SDS011;28634;45.454;11.106;2022-10-16T09:26:40;68.88;;;53.08;;
43008;SDS011;28634;45.454;11.106;2022-10-16T09:29:18;73.70;;;55.35;;
43008;SDS011;28634;45.454;11.106;2022-10-16T09:31:47;73.07;;;55.15;;
43008;SDS011;28634;45.454;11.106;2022-10-16T09:34:25;69.65;;;52.80;;
43008;SDS011;28634;45.454;11.106;2022-10-16T09:36:59;70.60;;;54.55;;
43008;SDS011;28634;45.454;11.106;2022-10-16T09:39:30;71.65;;;52.25;;
43008;SDS011;28634;45.454;11.106;2022-10-16T09:42:11;66.45;;;53.38;;
43008;SDS011;28634;45.454;11.106;2022-10-16T09:44:46;68.63;;;51.90;;
43008;SDS011;28634;45.454;11.106;2022-10-16T09:47:22;67.93;;;51.60;;
43008;SDS011;28634;45.454;11.106;2022-10-16T09:50:03;69.55;;;52.85;;
43008;SDS011;28634;45.454;11.106;2022-10-16T09:52:45;70.32;;;53.38;;
43008;SDS011;28634;45.454;11.106;2022-10-16T09:55:16;68.90;;;52.53;;
43008;SDS011;28634;45.454;11.106;2022-10-16T09:57:53;66.05;;;52.00;;
43008;SDS011;28634;45.454;11.106;2022-10-16T10:00:23;71.35;;;53.08;;
43008;SDS011;28634;45.454;11.106;2022-10-16T10:02:51;66.72;;;51.42;;
43008;SDS011;28634;45.454;11.106;2022-10-16T10:05:25;68.32;;;52.15;;
43008;SDS011;28634;45.454;11.106;2022-10-16T10:07:59;67.60;;;48.35;;
43008;SDS011;28634;45.454;11.106;2022-10-16T10:10:36;62.40;;;49.05;;
43008;SDS011;28634;45.454;11.106;2022-10-16T10:13:20;61.97;;;48.08;;
43008;SDS011;28634;45.454;11.106;2022-10-16T10:15:50;58.92;;;47.45;;
43008;SDS011;28634;45.454;11.106;2022-10-16T10:18:22;66.53;;;47.05;;
43008;SDS011;28634;45.454;11.106;2022-10-16T10:21:02;49.47;;;42.42;;
43008;SDS011;28634;45.454;11.106;2022-10-16T10:23:32;59.13;;;46.92;;
43008;SDS011;28634;45.454;11.106;2022-10-16T10:26:18;62.80;;;49.08;;
43008;SDS011;28634;45.454;11.106;2022-10-16T10:32:38;60.58;;;48.17;;
43008;SDS011;28634;45.454;11.106;2022-10-16T10:41:19;53.88;;;44.90;;
43008;SDS011;28634;45.454;11.106;2022-10-16T10:44:17;54.63;;;44.15;;
43008;SDS011;28634;45.454;11.106;2022-10-16T10:50:21;54.55;;;43.70;;
43008;SDS011;28634;45.454;11.106;2022-10-16T10:52:56;53.58;;;44.65;;
43008;SDS011;28634;45.454;11.106;2022-10-16T11:01:04;53.88;;;42.33;;
43008;SDS011;28634;45.454;11.106;2022-10-16T11:06:50;47.63;;;41.08;;
43008;SDS011;28634;45.454;11.106;2022-10-16T11:09:27;52.03;;;40.45;;
43008;SDS011;28634;45.454;11.106;2022-10-16T11:14:49;43.25;;;35.88;;
43008;SDS011;28634;45.454;11.106;2022-10-16T11:20:40;46.97;;;39.05;;
43008;SDS011;28634;45.454;11.106;2022-10-16T11:23:21;51.30;;;43.28;;
43008;SDS011;28634;45.454;11.106;2022-10-16T11:26:02;47.63;;;38.50;;
43008;SDS011;28634;45.454;11.106;2022-10-16T11:28:37;41.78;;;36.85;;
43008;SDS011;28634;45.454;11.106;2022-10-16T11:36:50;48.20;;;40.28;;
43008;SDS011;28634;45.454;11.106;2022-10-16T11:39:44;50.03;;;42.13;;
43008;SDS011;28634;45.454;11.106;2022-10-16T11:45:21;53.15;;;40.85;;
43008;SDS011;28634;45.454;11.106;2022-10-16T11:48:11;45.00;;;40.17;;
43008;SDS011;28634;45.454;11.106;2022-10-16T11:51:02;50.60;;;41.28;;
43008;SDS011;28634;45.454;11.106;2022-10-16T11:56:27;50.78;;;40.75;;
43008;SDS011;28634;45.454;11.106;2022-10-16T11:58:58;48.20;;;39.85;;
43008;SDS011;28634;45.454;11.106;2022-10-16T12:01:37;49.50;;;39.30;;
43008;SDS011;28634;45.454;11.106;2022-10-16T12:04:15;49.00;;;40.72;;
43008;SDS011;28634;45.454;11.106;2022-10-16T12:06:50;46.28;;;39.80;;
43008;SDS011;28634;45.454;11.106;2022-10-16T12:09:29;47.83;;;39.08;;
43008;SDS011;28634;45.454;11.106;2022-10-16T12:17:00;48.75;;;40.38;;
43008;SDS011;28634;45.454;11.106;2022-10-16T12:19:31;45.25;;;39.40;;
43008;SDS011;28634;45.454;11.106;2022-10-16T12:22:00;47.45;;;41.35;;
43008;SDS011;28634;45.454;11.106;2022-10-16T12:27:04;49.25;;;40.65;;
43008;SDS011;28634;45.454;11.106;2022-10-16T12:29:46;49.05;;;39.95;;
43008;SDS011;28634;45.454;11.106;2022-10-16T12:35:20;46.10;;;40.28;;
43008;SDS011;28634;45.454;11.106;2022-10-16T12:38:14;52.13;;;41.22;;
43008;SDS011;28634;45.454;11.106;2022-10-16T12:40:57;60.65;;;40.40;;
43008;SDS011;28634;45.454;11.106;2022-10-16T12:48:37;48.50;;;40.00;;
43008;SDS011;28634;45.454;11.106;2022-10-16T12:54:04;50.22;;;41.45;;
43008;SDS011;28634;45.454;11.106;2022-10-16T13:02:19;46.90;;;40.08;;
43008;SDS011;28634;45.454;11.106;2022-10-16T13:05:21;42.53;;;36.85;;
43008;SDS011;28634;45.454;11.106;2022-10-16T13:10:58;47.35;;;39.10;;
43008;SDS011;28634;45.454;11.106;2022-10-16T13:16:30;46.95;;;39.55;;
43008;SDS011;28634;45.454;11.106;2022-10-16T13:19:14;45.45;;;38.40;;
43008;SDS011;28634;45.454;11.106;2022-10-16T13:24:25;46.03;;;39.10;;
43008;SDS011;28634;45.454;11.106;2022-10-16T13:27:29;50.28;;;39.95;;
43008;SDS011;28634;45.454;11.106;2022-10-16T13:30:28;45.17;;;37.75;;
43008;SDS011;28634;45.454;11.106;2022-10-16T13:35:28;48.97;;;40.20;;
43008;SDS011;28634;45.454;11.106;2022-10-16T13:38:11;46.00;;;38.65;;
43008;SDS011;28634;45.454;11.106;2022-10-16T13:43:49;51.42;;;39.97;;
43008;SDS011;28634;45.454;11.106;2022-10-16T13:46:22;49.50;;;41.38;;
43008;SDS011;28634;45.454;11.106;2022-10-16T13:49:24;45.92;;;38.97;;
43008;SDS011;28634;45.454;11.106;2022-10-16T13:51:54;49.20;;;41.67;;
43008;SDS011;28634;45.454;11.106;2022-10-16T13:54:26;49.58;;;40.67;;
43008;SDS011;28634;45.454;11.106;2022-10-16T13:57:04;51.83;;;40.88;;
43008;SDS011;28634;45.454;11.106;2022-10-16T13:59:52;47.65;;;39.17;;
43008;SDS011;28634;45.454;11.106;2022-10-16T14:02:22;46.63;;;39.08;;
43008;SDS011;28634;45.454;11.106;2022-10-16T14:05:03;47.22;;;38.65;;
43008;SDS011;28634;45.454;11.106;2022-10-16T14:07:35;47.75;;;38.63;;
43008;SDS011;28634;45.454;11.106;2022-10-16T14:10:07;46.15;;;38.35;;
43008;SDS011;28634;45.454;11.106;2022-10-16T14:12:53;44.28;;;37.92;;
43008;SDS011;28634;45.454;11.106;2022-10-16T14:15:29;46.53;;;37.67;;
43008;SDS011;28634;45.454;11.106;2022-10-16T14:17:58;50.42;;;40.08;;
43008;SDS011;28634;45.454;11.106;2022-10-16T14:20:27;49.58;;;39.10;;
43008;SDS011;28634;45.454;11.106;2022-10-16T14:23:03;49.42;;;40.55;;
43008;SDS011;28634;45.454;11.106;2022-10-16T14:25:46;47.15;;;39.03;;
43008;SDS011;28634;45.454;11.106;2022-10-16T14:30:59;49.58;;;39.63;;
43008;SDS011;28634;45.454;11.106;2022-10-16T14:41:21;45.03;;;38.58;;
43008;SDS011;28634;45.454;11.106;2022-10-16T14:43:50;48.17;;;39.70;;
43008;SDS011;28634;45.454;11.106;2022-10-16T14:46:28;44.53;;;37.90;;
43008;SDS011;28634;45.454;11.106;2022-10-16T14:49:22;48.60;;;40.85;;
43008;SDS011;28634;45.454;11.106;2022-10-16T14:51:49;48.67;;;41.80;;
43008;SDS011;28634;45.454;11.106;2022-10-16T14:54:21;49.05;;;40.88;;
43008;SDS011;28634;45.454;11.106;2022-10-16T14:56:49;50.80;;;40.53;;
43008;SDS011;28634;45.454;11.106;2022-10-16T14:59:37;49.35;;;40.38;;
43008;SDS011;28634;45.454;11.106;2022-10-16T15:02:18;48.08;;;40.20;;
43008;SDS011;28634;45.454;11.106;2022-10-16T15:04:46;50.13;;;42.28;;
43008;SDS011;28634;45.454;11.106;2022-10-16T15:07:15;51.63;;;42.10;;
43008;SDS011;28634;45.454;11.106;2022-10-16T15:09:42;49.75;;;41.20;;
43008;SDS011;28634;45.454;11.106;2022-10-16T15:12:14;53.53;;;42.30;;
43008;SDS011;28634;45.454;11.106;2022-10-16T15:14:42;53.33;;;41.55;;
43008;SDS011;28634;45.454;11.106;2022-10-16T15:17:10;49.05;;;41.03;;
43008;SDS011;28634;45.454;11.106;2022-10-16T15:19:38;49.78;;;41.70;;
43008;SDS011;28634;45.454;11.106;2022-10-16T15:22:05;47.38;;;39.70;;
43008;SDS011;28634;45.454;11.106;2022-10-16T15:24:33;47.38;;;38.33;;
43008;SDS011;28634;45.454;11.106;2022-10-16T15:27:00;49.92;;;40.55;;
43008;SDS011;28634;45.454;11.106;2022-10-16T15:29:27;44.65;;;37.95;;
43008;SDS011;28634;45.454;11.106;2022-10-16T15:31:54;52.70;;;39.65;;
43008;SDS011;28634;45.454;11.106;2022-10-16T15:34:22;46.13;;;36.80;;
43008;SDS011;28634;45.454;11.106;2022-10-16T15:36:49;48.78;;;37.83;;
43008;SDS011;28634;45.454;11.106;2022-10-16T15:39:18;44.92;;;35.08;;
43008;SDS011;28634;45.454;11.106;2022-10-16T15:41:47;42.50;;;35.65;;
43008;SDS011;28634;45.454;11.106;2022-10-16T15:44:19;42.65;;;34.72;;
43008;SDS011;28634;45.454;11.106;2022-10-16T15:46:49;44.95;;;36.00;;
43008;SDS011;28634;45.454;11.106;2022-10-16T15:49:16;41.72;;;35.08;;
43008;SDS011;28634;45.454;11.106;2022-10-16T15:51:43;50.97;;;33.95;;
43008;SDS011;28634;45.454;11.106;2022-10-16T15:54:12;41.50;;;34.95;;
43008;SDS011;28634;45.454;11.106;2022-10-16T15:56:39;43.65;;;35.00;;
43008;SDS011;28634;45.454;11.106;2022-10-16T15:59:06;40.53;;;32.83;;
43008;SDS011;28634;45.454;11.106;2022-10-16T16:01:37;42.22;;;34.65;;
43008;SDS011;28634;45.454;11.106;2022-10-16T16:04:05;45.35;;;34.80;;
43008;SDS011;28634;45.454;11.106;2022-10-16T16:06:50;40.42;;;32.75;;
43008;SDS011;28634;45.454;11.106;2022-10-16T16:09:17;44.13;;;33.47;;
43008;SDS011;28634;45.454;11.106;2022-10-16T16:11:45;42.75;;;33.20;;
43008;SDS011;28634;45.454;11.106;2022-10-16T16:14:16;40.65;;;33.42;;
43008;SDS011;28634;45.454;11.106;2022-10-16T16:16:44;42.72;;;34.80;;
43008;SDS011;28634;45.454;11.106;2022-10-16T16:19:11;44.40;;;34.08;;
43008;SDS011;28634;45.454;11.106;2022-10-16T16:21:44;45.45;;;34.47;;
43008;SDS011;28634;45.454;11.106;2022-10-16T16:24:11;42.92;;;34.30;;
43008;SDS011;28634;45.454;11.106;2022-10-16T16:26:38;43.28;;;33.95;;
43008;SDS011;28634;45.454;11.106;2022-10-16T16:29:11;42.63;;;34.85;;
43008;SDS011;28634;45.454;11.106;2022-10-16T16:31:40;42.40;;;34.08;;
43008;SDS011;28634;45.454;11.106;2022-10-16T16:34:08;44.65;;;34.95;;
43008;SDS011;28634;45.454;11.106;2022-10-16T16:36:38;43.75;;;35.78;;